Guymon Municipal Airport
KGUY : rendu visible

Aérodrome :











RETROUVEZ-NOUS SUR...

 
LOGIN :

S'inscrire | Disclaimer

   EN    FR    IT 

 









Légende :    VFR   VFR Marginal   IFR   IFR Intensif   IFR Très Intensif
Visi : 
Plafond : 
>= 8 km
>= 3000ft
5 à 8 km
1000 à 3000 ft
1500m à 5 km
500 à 1000 ft
800 à 1500m
200 à 500 ft
< 800m
< 200 ft
Symboles :   Orages  Brouillard  Fortes neiges  Fortes précipitations  Vent > 20 kt






- Altitude de l'aérodrome : 3123 ft


KGUY - Guymon Municipal

DERNIER METAR :
  • 081253Z AUTO 30012KT 10SM CLR 10/M04 A2988 RMK AO2 SLP086 T01001039

METARs EXPIRÉS :
  • 081153Z AUTO 28014KT 10SM CLR 10/M01 A2983 RMK AO2 SLP066 T01001011 10150 20056 53003
  • 081053Z AUTO 28008KT 10SM CLR 08/01 A2982 RMK AO2 SLP063 T00780011
  • 080953Z AUTO 24008KT 10SM CLR 07/01 A2982 RMK AO2 SLP062 T00670011

TAF KGUY
Valide du 08 à 12h jusqu'au 09 à 12h UTC


081120Z 0812/0912 32009KT P6SM SKC
FM081600 36016KT P6SM SKC
FM090200 05008KT P6SM FEW250



MET'MAP, la Météo Aéronautique d'un coup d'oeil ! - Copyright ORBIFLY Décembre 2007 - Disclaimer

ORBIFLY MET'MAP TEAM :

Programmation & Développement : Alexandra Zaïnal
Sur une idée originale de : Baudouin d'Aumeries
Assistance à la programmation : Marc-Olivier Méhu
Soutien technique & logistique : Manuel Goepfert

Contact : metmap@orbifly.com




SOURCES & CREDITS :

   NOAA       Earth
Advisory